KC2PJH Weather Reports


time (UTC)temp
F
wind
direction
speed
knots
gust
knots
rain 1hr
in
rain 24hr
in
rain mn
in
humidity
%
barometer
mb
20260504160321 65 359 4.3 12.2 0.00 0.00 0.00 40 1008.5
20260504150326 63 359 7.8 18.2 0.00 0.00 0.00 38 1009.2
20260504141317 60 359 3.5 9.6 0.00 0.00 0.00 42 1009.7
20260504140316 60 359 5.2 14.8 0.00 0.00 0.00 42 1009.8
20260504130321 57 359 0.9 7.0 0.00 0.00 0.00 48 1010.1
20260504110326 47 359 1.7 4.3 0.00 0.00 0.00 53 1010.3
20260504100327 47 359 0.9 2.6 0.00 0.00 0.00 54 1010.2
20260504081319 46 359 1.7 3.5 0.00 0.00 0.00 52 1009.9
20260504080317 46 359 1.7 3.5 0.00 0.00 0.00 53 1009.9
20260504070345 47 359 0.0 1.7 0.00 0.00 0.00 52 1009.8
20260504050320 44 359 0.0 2.6 0.00 0.00 0.00 34 1009.5
20260504045336 44 359 0.0 0.0 0.00 0.00 0.00 22 1009.6
20260504044327 44 359 0.0 1.7 0.00 0.00 0.00 21 1009.4
20260504043320 43 359 0.0 0.0 0.00 0.00 0.00 9 1009.5
20260504042318 44 359 0.0 0.0 0.00 0.00 0.00 12 1009.5
20260504041318 44 359 0.0 0.0 0.00 0.00 0.00 33 1009.3
20260504040316 45 359 0.0 0.0 0.00 0.00 0.00 35 1009.2
20260504035314 45 359 0.0 0.0 0.00 0.00 0.00 44 1009.1
20260504034323 46 359 0.0 0.0 0.00 0.00 0.00 54 1009.1
20260504033320 46 359 0.0 0.0 0.00 0.00 0.00 56 1009.0
20260504032317 47 359 0.0 0.0 0.00 0.00 0.00 57 1009.1
20260504031315 47 359 0.0 1.7 0.00 0.00 0.00 56 1009.1
20260504030323 48 359 0.0 1.7 0.00 0.00 0.00 55 1009.1
20260504025319 48 359 0.0 1.7 0.00 0.00 0.00 55 1009.1
20260504024328 48 359 0.0 0.9 0.00 0.00 0.00 55 1009.1
20260504023339 48 359 0.0 0.0 0.00 0.00 0.00 54 1009.1
20260504022334 49 359 0.0 0.0 0.00 0.00 0.00 54 1009.2
20260504021324 49 233 0.0 0.0 0.00 0.00 0.00 52 1009.1
20260504020322 50 233 0.0 0.9 0.00 0.00 0.00 52 1009.1
20260504015319 50 253 0.0 0.0 0.00 0.00 0.00 51 1009.1
20260504014319 51 253 0.0 0.9 0.00 0.00 0.00 50 1009.2
20260504013327 52 359 0.0 0.0 0.00 0.00 0.00 48 1009.1
20260504012344 52 359 0.0 0.0 0.00 0.00 0.00 46 1009.0
20260504011319 52 359 0.0 0.0 0.00 0.00 0.00 45 1009.0
20260504010327 53 359 0.0 0.0 0.00 0.00 0.00 44 1008.9
20260504005344 53 359 0.0 2.6 0.00 0.00 0.00 44 1008.8
20260504004321 54 260 0.9 3.5 0.00 0.00 0.00 43 1008.7
20260504003319 54 268 0.9 2.6 0.00 0.00 0.00 42 1008.7
20260504002328 55 249 0.0 3.5 0.00 0.00 0.00 41 1008.5
20260504001323 55 359 0.9 3.5 0.00 0.00 0.00 40 1008.4
20260504000322 56 359 1.7 5.2 0.00 0.00 0.00 39 1008.2
20260503235320 56 359 2.6 4.3 0.00 0.00 0.00 38 1008.0
20260503234325 56 359 1.7 3.5 0.00 0.00 0.00 38 1008.0
20260503233322 56 359 1.7 7.8 0.00 0.00 0.00 38 1007.8
20260503232317 56 359 0.9 5.2 0.00 0.00 0.00 38 1007.8
20260503231325 56 359 2.6 5.2 0.00 0.00 0.00 37 1007.8
20260503230318 57 359 0.9 4.3 0.00 0.00 0.00 36 1007.7
20260503225323 57 280 0.9 5.2 0.00 0.00 0.00 35 1007.6
20260503224319 57 359 2.6 7.0 0.00 0.00 0.00 35 1007.5
20260503223318 57 359 2.6 5.2 0.00 0.00 0.00 33 1007.5
20260503222317 58 359 2.6 8.7 0.00 0.00 0.00 32 1007.4
20260503221314 59 359 4.3 10.4 0.00 0.00 0.00 32 1007.2
20260503220322 58 359 3.5 7.0 0.00 0.00 0.00 30 1007.2
20260503215319 58 359 2.6 9.6 0.00 0.00 0.00 30 1007.1
20260503214317 58 359 5.2 10.4 0.00 0.00 0.00 29 1007.2
20260503213315 58 359 2.6 7.8 0.00 0.00 0.00 29 1007.0
20260503212321 59 359 3.5 7.8 0.00 0.00 0.00 30 1007.0
20260503211318 58 359 7.0 15.6 0.00 0.00 0.00 28 1007.0
20260503210326 58 359 4.3 15.6 0.00 0.00 0.00 29 1007.0
20260503205320 58 359 3.5 11.3 0.00 0.00 0.00 30 1007.1
20260503204348 58 359 3.5 8.7 0.00 0.00 0.00 29 1007.1
20260503203323 58 359 4.3 9.6 0.00 0.00 0.00 31 1007.2
20260503202321 58 359 3.5 10.4 0.00 0.00 0.00 33 1007.0
20260503201318 57 359 2.6 11.3 0.00 0.00 0.00 33 1007.2
20260503200327 57 359 2.6 9.6 0.00 0.00 0.00 34 1007.3
20260503195343 57 359 5.2 13.9 0.00 0.00 0.00 33 1007.5
20260503194319 56 359 2.6 7.8 0.00 0.00 0.00 35 1007.6
20260503193327 56 359 4.3 13.9 0.00 0.00 0.00 35 1007.8
20260503192323 56 359 2.6 7.8 0.00 0.00 0.00 36 1007.8
20260503191319 55 359 3.5 8.7 0.00 0.00 0.00 37 1007.9
20260503190334 54 359 3.5 14.8 0.00 0.00 0.00 36 1008.0
20260503185325 55 359 5.2 11.3 0.00 0.00 0.00 36 1008.0
20260503184321 55 359 4.3 7.8 0.00 0.00 0.00 38 1008.1
20260503183320 53 359 3.5 12.2 0.00 0.00 0.00 40 1008.2
20260503182318 54 359 6.1 14.8 0.00 0.00 0.00 37 1008.3
20260503181327 54 359 4.3 11.3 0.00 0.00 0.00 39 1008.5
20260503180322 53 359 3.5 8.7 0.00 0.00 0.00 41 1008.5
20260503175337 53 359 3.5 8.7 0.00 0.00 0.00 40 1008.6
20260503174322 52 359 5.2 8.7 0.00 0.00 0.00 40 1008.8
20260503173319 52 359 4.3 11.3 0.00 0.00 0.00 42 1008.8
20260503172315 52 359 4.3 10.4 0.00 0.00 0.00 42 1008.7
20260503171323 51 359 3.5 8.7 0.00 0.00 0.00 44 1009.0
20260503170321 50 359 1.7 8.7 0.00 0.00 0.00 45 1008.9